Time;durP1;ratioP1;P1;durP2;ratioP2;P2;SDS_P1;SDS_P2;PMS_P1;PMS_P2;Temp;Humidity;BMP_temperature;BMP_pressure;BME280_temperature;BME280_humidity;BME280_pressure;Samples;Min_cycle;Max_cycle;Signal;HPM_P1;HPM_P2
2021/12/20 00:00:20;;;;;;;30.08;18.45;;;6.30;99.90;;;;;;6332818;22;20066;-69
2021/12/20 00:02:50;;;;;;;26.23;14.90;;;6.20;99.90;;;;;;6361392;22;19998;-70
2021/12/20 00:05:16;;;;;;;26.15;16.58;;;6.30;99.90;;;;;;6359433;22;20016;-69
2021/12/20 00:07:42;;;;;;;29.48;17.67;;;6.30;99.90;;;;;;6333360;22;20035;-69
2021/12/20 00:10:08;;;;;;;;;;;6.30;99.90;;;;;;6360945;22;19994;-70
2021/12/20 00:12:34;;;;;;;29.13;17.15;;;6.30;99.90;;;;;;6361177;22;19924;-69
2021/12/20 00:14:59;;;;;;;29.65;17.70;;;6.30;99.90;;;;;;6362551;22;20038;-69
2021/12/20 00:17:25;;;;;;;28.33;16.83;;;6.40;99.90;;;;;;6361538;22;20021;-69
2021/12/20 00:19:51;;;;;;;26.38;16.13;;;6.40;99.90;;;;;;6359682;22;19997;-68
2021/12/20 00:22:17;;;;;;;25.52;16.20;;;6.30;99.90;;;;;;6360891;22;20034;-69
2021/12/20 00:24:43;;;;;;;25.83;15.98;;;6.30;99.90;;;;;;6360476;22;19979;-69
2021/12/20 00:27:11;;;;;;;27.02;16.15;;;6.30;99.90;;;;;;6359031;22;19995;-69
2021/12/20 00:29:37;;;;;;;26.13;15.52;;;6.40;99.90;;;;;;6361886;22;20002;-68
2021/12/20 00:32:03;;;;;;;26.27;16.25;;;6.40;99.90;;;;;;6358743;22;20060;-68
2021/12/20 00:34:28;;;;;;;29.08;17.40;;;6.40;99.90;;;;;;6361786;22;19983;-69
2021/12/20 00:37:03;;;;;;;32.03;17.88;;;6.30;99.90;;;;;;6362059;22;19995;-68
2021/12/20 00:42:15;;;;;;;29.85;17.95;;;6.60;99.90;;;;;;6362139;22;20029;-69
2021/12/20 00:44:41;;;;;;;31.23;16.95;;;6.60;99.90;;;;;;6362404;22;20006;-68
2021/12/20 00:47:07;;;;;;;28.02;16.75;;;6.60;99.90;;;;;;6360979;22;20043;-68
2021/12/20 00:49:32;;;;;;;27.05;16.40;;;6.50;99.90;;;;;;6362220;22;20051;-68
2021/12/20 00:51:58;;;;;;;31.90;17.77;;;6.50;99.90;;;;;;6360568;22;19983;-69
2021/12/20 00:54:24;;;;;;;26.25;15.23;;;6.50;99.90;;;;;;6361700;22;20006;-68
2021/12/20 00:56:50;;;;;;;25.55;14.93;;;6.60;99.90;;;;;;6361902;22;19995;-68
2021/12/20 00:59:16;;;;;;;24.77;14.70;;;6.60;99.90;;;;;;6361377;22;20006;-69
2021/12/20 01:01:42;;;;;;;25.02;15.48;;;6.70;99.90;;;;;;6361842;22;20043;-68
2021/12/20 01:04:08;;;;;;;27.75;16.13;;;6.70;99.90;;;;;;6362108;22;20019;-68
2021/12/20 01:06:37;;;;;;;26.92;15.68;;;6.60;99.90;;;;;;6361252;22;20002;-67
2021/12/20 01:09:03;;;;;;;24.10;14.77;;;6.60;99.90;;;;;;6361935;22;20341;-68
2021/12/20 01:11:29;;;;;;;21.90;13.02;;;6.70;99.90;;;;;;6361974;22;19990;-68
2021/12/20 01:13:57;;;;;;;22.95;13.60;;;6.70;99.90;;;;;;6360792;22;20017;-68
2021/12/20 01:16:30;;;;;;;23.50;13.90;;;6.60;99.90;;;;;;6362406;22;20010;-68
2021/12/20 01:18:57;;;;;;;27.65;14.43;;;6.60;99.90;;;;;;6362073;22;20003;-68
2021/12/20 01:21:23;;;;;;;23.67;13.63;;;6.50;99.90;;;;;;6334188;22;20010;-69
2021/12/20 01:23:49;;;;;;;23.63;13.52;;;6.60;99.90;;;;;;6361265;22;19999;-69
2021/12/20 01:26:15;;;;;;;;;;;6.60;99.90;;;;;;6360651;22;20051;-69
2021/12/20 01:28:43;;;;;;;23.48;13.38;;;6.60;99.90;;;;;;6362146;22;19948;-68
2021/12/20 01:31:09;;;;;;;21.35;12.85;;;6.60;99.90;;;;;;6361526;22;20065;-68
2021/12/20 01:33:35;;;;;;;23.52;13.48;;;6.60;99.90;;;;;;6360975;22;19995;-68
2021/12/20 01:36:02;;;;;;;23.42;13.30;;;6.60;99.90;;;;;;6362069;22;19995;-68
2021/12/20 01:38:27;;;;;;;21.85;13.00;;;6.70;99.90;;;;;;6361510;22;20088;-69
2021/12/20 01:40:53;;;;;;;21.90;13.88;;;6.80;99.90;;;;;;6361693;22;20003;-69
2021/12/20 01:43:19;;;;;;;18.48;11.43;;;6.80;99.90;;;;;;6362388;22;19994;-68
2021/12/20 01:45:49;;;;;;;19.25;12.05;;;6.70;99.90;;;;;;6361819;22;19997;-69
2021/12/20 01:48:17;;;;;;;18.92;12.25;;;6.70;99.90;;;;;;6362734;22;19990;-69
2021/12/20 01:53:14;;;;;;;25.80;14.20;;;6.60;99.90;;;;;;6362196;22;20030;-70
2021/12/20 01:55:40;;;;;;;22.02;13.85;;;6.60;99.90;;;;;;6363800;22;20008;-68
2021/12/20 01:58:06;;;;;;;;;;;6.60;99.90;;;;;;6363821;22;20035;-68
2021/12/20 02:00:32;;;;;;;16.15;10.25;;;6.80;99.90;;;;;;6334977;22;19899;-69
2021/12/20 02:03:01;;;;;;;;;;;6.70;99.90;;;;;;6362598;22;20059;-68
2021/12/20 02:06:05;;;;;;;15.82;9.85;;;6.80;99.90;;;;;;6361422;22;19902;-67
2021/12/20 02:08:23;;;;;;;15.25;10.15;;;6.70;99.90;;;;;;6358369;22;19987;-68
2021/12/20 02:10:53;;;;;;;16.35;9.45;;;6.70;99.90;;;;;;6361906;22;20129;-69
2021/12/20 02:13:21;;;;;;;16.67;10.40;;;6.60;99.90;;;;;;6361008;22;19999;-70
2021/12/20 02:15:47;;;;;;;14.10;9.65;;;6.70;99.90;;;;;;6361136;22;19995;-67
2021/12/20 02:18:13;;;;;;;15.55;9.68;;;6.70;99.90;;;;;;6360986;22;19999;-68
2021/12/20 02:20:39;;;;;;;14.82;9.48;;;6.70;99.90;;;;;;6332937;22;20005;-69
2021/12/20 02:23:07;;;;;;;14.43;9.10;;;6.80;99.90;;;;;;6361265;22;19986;-68
2021/12/20 02:25:33;;;;;;;13.57;8.82;;;6.70;99.90;;;;;;6334082;22;19986;-67
2021/12/20 02:28:01;;;;;;;;;;;6.60;99.90;;;;;;6361293;22;20001;-68
2021/12/20 02:38:26;;;;;;;8.10;5.80;;;6.80;99.90;;;;;;6360437;22;20454;-67
2021/12/20 02:41:10;;;;;;;9.25;6.18;;;6.80;99.90;;;;;;6361468;22;20043;-68
2021/12/20 02:43:40;;;;;;;10.80;6.80;;;6.90;99.90;;;;;;6360642;22;20051;-70
2021/12/20 02:48:55;;;;;;;9.25;6.22;;;7.00;99.90;;;;;;6362579;22;19999;-69
2021/12/20 02:51:23;;;;;;;8.35;5.78;;;6.90;99.90;;;;;;6360960;22;20010;-69
2021/12/20 02:53:53;;;;;;;8.05;5.43;;;7.00;99.90;;;;;;6359180;22;19999;-68
2021/12/20 02:56:19;;;;;;;6.65;4.70;;;7.00;99.90;;;;;;6336917;22;20006;-69
2021/12/20 02:58:45;;;;;;;;;;;7.00;99.90;;;;;;6362053;22;20047;-69
2021/12/20 03:01:11;;;;;;;6.38;3.88;;;7.00;99.90;;;;;;6362325;22;19899;-70
2021/12/20 03:03:37;;;;;;;;;;;7.10;99.90;;;;;;6362396;22;19997;-71
2021/12/20 03:06:18;;;;;;;4.75;3.55;;;7.10;99.90;;;;;;6333102;22;19898;-69
2021/12/20 03:08:47;;;;;;;5.75;3.55;;;7.00;99.90;;;;;;6361254;22;20006;-71
2021/12/20 03:11:13;;;;;;;5.13;3.47;;;7.10;99.90;;;;;;6359563;22;19998;-72
2021/12/20 03:13:39;;;;;;;;;;;7.10;99.90;;;;;;6359724;22;19999;-68
2021/12/20 03:16:05;;;;;;;4.78;3.40;;;7.20;99.90;;;;;;6359831;22;19898;-67
2021/12/20 03:18:30;;;;;;;;;;;7.10;99.90;;;;;;6360628;22;20050;-68
2021/12/20 03:20:56;;;;;;;6.55;4.20;;;7.20;99.90;;;;;;6360950;22;19886;-68
2021/12/20 03:23:22;;;;;;;7.40;4.18;;;7.20;99.90;;;;;;6333512;22;20073;-69
2021/12/20 03:25:48;;;;;;;7.25;4.47;;;7.10;99.90;;;;;;6359973;22;20050;-69
2021/12/20 03:28:14;;;;;;;;;;;7.10;99.90;;;;;;6361252;22;19998;-68
2021/12/20 03:30:40;;;;;;;9.75;4.82;;;7.10;99.90;;;;;;6361796;22;19930;-68
2021/12/20 03:33:06;;;;;;;;;;;7.10;99.90;;;;;;6361491;22;19991;-68
2021/12/20 03:35:31;;;;;;;9.00;5.45;;;7.10;99.90;;;;;;6361927;22;19901;-68
2021/12/20 03:37:57;;;;;;;7.15;4.80;;;7.20;99.90;;;;;;6361293;22;19999;-69
2021/12/20 03:40:23;;;;;;;7.70;5.13;;;7.20;99.90;;;;;;6361062;22;20048;-69
2021/12/20 03:42:49;;;;;;;8.95;5.43;;;7.10;99.90;;;;;;6360926;22;19994;-68
2021/12/20 03:45:15;;;;;;;8.93;5.20;;;7.20;99.90;;;;;;6359183;22;19979;-68
2021/12/20 03:47:41;;;;;;;;;;;7.30;99.90;;;;;;6361062;22;19991;-70
2021/12/20 03:50:08;;;;;;;7.70;5.18;;;7.30;99.90;;;;;;6360884;22;19906;-68
2021/12/20 03:52:34;;;;;;;8.85;5.95;;;7.20;99.90;;;;;;6333976;22;19987;-68
2021/12/20 03:54:59;;;;;;;9.30;6.05;;;7.10;99.90;;;;;;6361350;22;19989;-68
2021/12/20 03:57:25;;;;;;;11.02;6.57;;;7.10;99.90;;;;;;6362214;22;19994;-69
2021/12/20 03:59:53;;;;;;;10.68;6.05;;;7.20;99.90;;;;;;6333505;22;19999;-68
2021/12/20 04:02:21;;;;;;;13.10;7.38;;;7.10;99.90;;;;;;6361846;22;19991;-67
2021/12/20 04:04:47;;;;;;;10.82;7.00;;;7.00;99.90;;;;;;6361628;22;19995;-69
2021/12/20 04:07:13;;;;;;;;;;;6.90;99.90;;;;;;6363756;22;20050;-68
2021/12/20 04:09:38;;;;;;;10.05;7.07;;;6.90;99.90;;;;;;6363008;22;19907;-68
2021/12/20 04:12:05;;;;;;;10.02;6.57;;;7.00;99.90;;;;;;6360941;22;19991;-68
2021/12/20 04:14:31;;;;;;;9.75;6.93;;;7.10;99.90;;;;;;6363731;22;19999;-68
2021/12/20 04:16:56;;;;;;;10.77;6.80;;;7.10;99.90;;;;;;6363676;22;20025;-67
2021/12/20 04:19:22;;;;;;;12.50;7.13;;;7.20;99.90;;;;;;6363346;22;19991;-68
2021/12/20 04:21:48;;;;;;;9.98;6.82;;;7.30;99.90;;;;;;6364149;22;19999;-68
2021/12/20 04:24:14;;;;;;;11.57;7.82;;;7.30;99.90;;;;;;6363630;22;19999;-68
2021/12/20 04:26:40;;;;;;;11.70;7.35;;;7.20;99.90;;;;;;6362269;22;19987;-68
2021/12/20 04:29:05;;;;;;;15.70;7.97;;;7.10;99.90;;;;;;6361814;22;20010;-67
2021/12/20 04:31:33;;;;;;;15.38;8.65;;;7.10;99.90;;;;;;6362553;22;20024;-68
2021/12/20 04:33:58;;;;;;;12.13;8.10;;;7.00;99.90;;;;;;6361532;22;19995;-68
2021/12/20 04:36:24;;;;;;;16.13;8.07;;;7.10;99.90;;;;;;6336111;22;20068;-68
2021/12/20 04:38:50;;;;;;;11.95;6.55;;;7.00;99.90;;;;;;6361933;22;19982;-68
2021/12/20 04:41:15;;;;;;;12.40;6.47;;;7.00;99.90;;;;;;6362593;22;20014;-67
2021/12/20 04:43:41;;;;;;;13.45;6.32;;;7.00;99.90;;;;;;6361191;22;19991;-69
2021/12/20 04:46:09;;;;;;;12.05;6.22;;;7.10;99.90;;;;;;6361095;22;19999;-71
2021/12/20 04:48:34;;;;;;;9.73;5.75;;;7.10;99.90;;;;;;6361021;22;20006;-68
2021/12/20 04:51:00;;;;;;;10.73;5.40;;;7.10;99.90;;;;;;6360008;22;19998;-68
2021/12/20 04:53:26;;;;;;;10.48;5.45;;;7.10;99.90;;;;;;6361092;22;19991;-69
2021/12/20 04:56:13;;;;;;;11.15;5.53;;;7.10;99.90;;;;;;6360337;22;20018;-69
2021/12/20 04:58:38;;;;;;;8.90;4.68;;;7.00;99.90;;;;;;6359542;22;20063;-70
2021/12/20 05:01:05;;;;;;;10.52;5.15;;;7.00;99.90;;;;;;6361269;22;20046;-68
2021/12/20 05:03:30;;;;;;;;;;;7.10;99.90;;;;;;6362262;22;19994;-69
2021/12/20 05:05:56;;;;;;;10.73;4.90;;;7.20;99.90;;;;;;6360993;22;19902;-72
2021/12/20 05:08:22;;;;;;;8.88;4.18;;;7.30;99.90;;;;;;6361504;22;19998;-68
2021/12/20 05:10:48;;;;;;;8.98;4.20;;;7.30;99.90;;;;;;6360855;22;19991;-69
2021/12/20 05:13:13;;;;;;;7.93;4.35;;;7.10;99.90;;;;;;6361739;22;20027;-68
2021/12/20 05:15:40;;;;;;;8.48;4.18;;;7.20;99.90;;;;;;6362217;22;20055;-69
2021/12/20 05:18:09;;;;;;;19.98;4.22;;;7.30;99.90;;;;;;6359833;22;20002;-69
2021/12/20 05:20:35;;;;;;;7.40;3.88;;;7.20;99.90;;;;;;6360723;22;19991;-69
2021/12/20 05:23:04;;;;;;;6.47;3.53;;;7.10;99.90;;;;;;6358958;22;20003;-69
2021/12/20 05:25:30;;;;;;;5.32;3.40;;;7.10;99.90;;;;;;6359248;22;20456;-68
2021/12/20 05:27:56;;;;;;;7.63;3.88;;;7.10;99.90;;;;;;6334596;22;20009;-69
2021/12/20 05:30:22;;;;;;;6.00;4.10;;;7.10;99.90;;;;;;6362359;22;20007;-69
2021/12/20 05:32:48;;;;;;;7.38;4.07;;;7.10;99.90;;;;;;6362247;22;19998;-69
2021/12/20 05:35:16;;;;;;;8.05;4.10;;;7.10;99.90;;;;;;6362863;22;19990;-69
2021/12/20 05:37:42;;;;;;;8.25;4.15;;;7.10;99.90;;;;;;6363495;22;19983;-68
2021/12/20 05:40:10;;;;;;;7.38;4.75;;;7.20;99.90;;;;;;6361160;22;19991;-68
2021/12/20 05:42:36;;;;;;;10.27;4.13;;;7.30;99.90;;;;;;6362775;22;20002;-68
2021/12/20 05:45:02;;;;;;;;;;;7.20;99.90;;;;;;6361983;22;19999;-71
2021/12/20 05:47:28;;;;;;;6.40;4.47;;;7.20;99.90;;;;;;6362735;22;19919;-69
2021/12/20 05:49:54;;;;;;;7.68;4.90;;;7.20;99.90;;;;;;6362306;22;20243;-68
2021/12/20 05:52:20;;;;;;;10.55;4.75;;;7.20;99.90;;;;;;6360904;22;20096;-69
2021/12/20 05:54:45;;;;;;;8.13;4.78;;;7.20;99.90;;;;;;6362779;22;19999;-69
2021/12/20 05:57:11;;;;;;;10.90;4.93;;;7.20;99.90;;;;;;6362461;22;19998;-69
2021/12/20 05:59:37;;;;;;;8.75;5.15;;;7.30;99.90;;;;;;6361368;22;20030;-68
2021/12/20 06:02:03;;;;;;;9.32;5.35;;;7.40;99.90;;;;;;6362659;22;19999;-69
2021/12/20 06:04:29;;;;;;;11.05;5.50;;;7.50;99.90;;;;;;6363305;22;20043;-72
2021/12/20 06:06:54;;;;;;;10.43;5.90;;;7.50;99.90;;;;;;6362071;22;19999;-69
2021/12/20 06:09:20;;;;;;;9.63;5.65;;;7.40;99.90;;;;;;6363023;22;19995;-68
2021/12/20 06:11:46;;;;;;;11.68;5.68;;;7.40;99.90;;;;;;6361544;22;19983;-68
2021/12/20 06:14:12;;;;;;;12.23;5.80;;;7.30;99.90;;;;;;6361758;22;20022;-69
2021/12/20 06:16:37;;;;;;;14.25;5.93;;;7.20;99.90;;;;;;6334696;22;20002;-68
2021/12/20 06:19:03;;;;;;;12.40;6.07;;;7.30;99.90;;;;;;6359912;22;20003;-67
2021/12/20 06:21:29;;;;;;;12.15;5.90;;;7.30;99.90;;;;;;6361484;22;19999;-68
2021/12/20 06:23:55;;;;;;;15.50;6.03;;;7.30;99.90;;;;;;6362427;22;19983;-68
2021/12/20 06:26:23;;;;;;;14.32;6.72;;;7.40;99.90;;;;;;6361356;22;19998;-69
2021/12/20 06:28:53;;;;;;;11.73;5.97;;;7.20;99.90;;;;;;6361611;22;20014;-68
2021/12/20 06:31:18;;;;;;;9.70;4.90;;;7.20;99.90;;;;;;6362300;22;20029;-68
2021/12/20 06:33:44;;;;;;;11.25;4.93;;;7.10;99.90;;;;;;6334747;22;19994;-70
2021/12/20 06:36:10;;;;;;;6.57;3.75;;;7.10;99.90;;;;;;6363091;22;20006;-69
2021/12/20 06:38:43;;;;;;;;;;;6.90;99.90;;;;;;6361095;22;19995;-70
2021/12/20 06:41:09;;;;;;;6.32;3.40;;;6.80;99.90;;;;;;6360566;22;19934;-69
2021/12/20 06:43:34;;;;;;;8.40;3.60;;;6.90;99.90;;;;;;6361065;22;19990;-69
2021/12/20 06:46:00;;;;;;;4.50;3.03;;;7.00;99.90;;;;;;6359897;22;20024;-68
2021/12/20 06:48:26;;;;;;;6.28;3.38;;;7.00;99.90;;;;;;6361223;22;19987;-68
2021/12/20 06:50:52;;;;;;;6.28;3.80;;;7.00;99.90;;;;;;6361441;22;19999;-68
2021/12/20 06:53:18;;;;;;;10.73;4.20;;;7.00;99.90;;;;;;6361287;22;20037;-69
2021/12/20 06:55:44;;;;;;;37.92;5.35;;;7.00;99.90;;;;;;6362143;22;19995;-67
2021/12/20 06:58:09;;;;;;;9.30;3.60;;;7.00;99.90;;;;;;6362095;22;20017;-68
2021/12/20 07:00:38;;;;;;;11.20;4.43;;;7.10;99.90;;;;;;6359506;22;20107;-69
2021/12/20 07:03:04;;;;;;;10.18;4.35;;;7.10;99.90;;;;;;6362018;22;19995;-71
2021/12/20 07:05:30;;;;;;;6.22;3.75;;;7.20;99.90;;;;;;6360148;22;19995;-69
2021/12/20 07:07:55;;;;;;;6.05;3.88;;;7.20;99.90;;;;;;6360746;22;19994;-69
2021/12/20 07:10:21;;;;;;;6.95;3.47;;;7.10;99.90;;;;;;6361212;22;19994;-69
2021/12/20 07:12:47;;;;;;;10.50;3.28;;;7.10;99.90;;;;;;6360321;22;19995;-68
2021/12/20 07:15:14;;;;;;;5.65;3.00;;;7.00;99.90;;;;;;6362247;22;20025;-69
2021/12/20 07:17:41;;;;;;;8.35;2.80;;;6.90;99.90;;;;;;6363267;22;19987;-69
2021/12/20 07:20:07;;;;;;;9.38;2.45;;;6.90;99.90;;;;;;6360936;22;19990;-68
2021/12/20 07:22:36;;;;;;;6.50;2.30;;;6.90;99.90;;;;;;6362695;22;20385;-69
2021/12/20 07:25:03;;;;;;;5.60;2.45;;;7.00;99.90;;;;;;6333492;22;19999;-69
2021/12/20 07:27:30;;;;;;;5.40;2.40;;;6.90;99.90;;;;;;6362195;22;19987;-68
2021/12/20 07:29:56;;;;;;;3.10;1.88;;;6.90;99.90;;;;;;6362573;22;20016;-69
2021/12/20 07:32:22;;;;;;;4.35;2.20;;;7.00;99.90;;;;;;6361111;22;20062;-69
2021/12/20 07:34:48;;;;;;;5.90;2.30;;;7.00;99.90;;;;;;6361785;22;20025;-68
2021/12/20 07:37:14;;;;;;;7.18;2.50;;;7.10;99.90;;;;;;6362640;22;19983;-69
2021/12/20 07:39:40;;;;;;;6.38;2.28;;;7.20;99.90;;;;;;6333210;22;20011;-68
2021/12/20 07:42:07;;;;;;;15.00;6.50;;;7.20;99.90;;;;;;6362408;22;19995;-69
2021/12/20 07:44:33;;;;;;;3.75;2.13;;;7.20;99.90;;;;;;6364463;22;20089;-69
2021/12/20 07:46:59;;;;;;;4.97;2.25;;;7.30;99.90;;;;;;6363806;22;20002;-69
2021/12/20 07:49:24;;;;;;;3.67;2.28;;;7.20;99.90;;;;;;6361932;22;20002;-70
2021/12/20 07:51:52;;;;;;;11.90;2.63;;;7.20;99.90;;;;;;6363637;22;19987;-68
2021/12/20 07:54:18;;;;;;;2.75;1.77;;;7.20;99.90;;;;;;6360887;22;20423;-68
2021/12/20 07:56:44;;;;;;;4.22;1.75;;;7.10;99.90;;;;;;6364764;22;19991;-69
2021/12/20 07:59:09;;;;;;;5.97;1.50;;;7.10;99.90;;;;;;6333450;22;20079;-68
2021/12/20 08:01:35;;;;;;;4.05;1.63;;;7.10;99.90;;;;;;6362329;22;20009;-70
2021/12/20 08:04:03;;;;;;;3.38;1.30;;;7.10;99.90;;;;;;6362109;22;20006;-69
2021/12/20 08:06:29;;;;;;;3.97;0.95;;;7.00;99.90;;;;;;6362597;22;20057;-69
2021/12/20 08:08:55;;;;;;;2.88;1.40;;;7.00;99.90;;;;;;6363374;22;20037;-68
2021/12/20 08:11:20;;;;;;;2.53;1.30;;;7.00;99.90;;;;;;6364133;22;19978;-69
2021/12/20 08:13:46;;;;;;;2.20;1.30;;;7.10;99.90;;;;;;6362527;22;19983;-68
2021/12/20 08:16:19;;;;;;;2.80;1.05;;;7.10;99.90;;;;;;6364093;22;20007;-69
2021/12/20 08:18:45;;;;;;;5.80;1.55;;;7.10;99.90;;;;;;6362520;22;19991;-69
2021/12/20 08:21:14;;;;;;;5.68;1.80;;;7.00;99.90;;;;;;6337416;22;20030;-68
2021/12/20 08:23:40;;;;;;;12.45;1.52;;;6.90;99.90;;;;;;6364110;22;20048;-70
2021/12/20 08:26:07;;;;;;;2.65;1.17;;;7.00;99.90;;;;;;6358470;22;20006;-69
2021/12/20 08:28:35;;;;;;;3.47;1.05;;;7.20;99.90;;;;;;6357071;22;19999;-69
2021/12/20 08:31:02;;;;;;;2.67;1.00;;;7.20;99.90;;;;;;6356983;22;20054;-68
2021/12/20 08:33:32;;;;;;;2.10;0.98;;;7.20;99.90;;;;;;6357427;22;19995;-71
2021/12/20 08:36:12;;;;;;;5.78;1.30;;;7.20;99.90;;;;;;6355538;22;19995;-69
2021/12/20 08:38:39;;;;;;;3.13;1.23;;;7.20;99.90;;;;;;6355402;22;19998;-71
2021/12/20 08:41:05;;;;;;;4.28;1.30;;;7.20;99.90;;;;;;6350033;22;20021;-68
2021/12/20 08:43:30;;;;;;;8.07;1.30;;;7.10;99.90;;;;;;6324746;22;19999;-69
2021/12/20 08:45:59;;;;;;;4.72;1.20;;;7.20;99.90;;;;;;6353732;22;19998;-69
2021/12/20 08:48:25;;;;;;;2.08;1.33;;;7.20;99.90;;;;;;6358954;22;19999;-69
2021/12/20 08:50:51;;;;;;;5.30;1.20;;;7.20;99.90;;;;;;6361779;22;19983;-71
2021/12/20 08:53:17;;;;;;;5.90;1.45;;;7.30;99.90;;;;;;6356844;22;20005;-69
2021/12/20 08:55:43;;;;;;;5.55;1.45;;;7.40;99.90;;;;;;6359851;22;20017;-70
2021/12/20 08:58:12;;;;;;;6.55;1.45;;;7.50;99.90;;;;;;6325206;22;20120;-69
2021/12/20 09:00:39;;;;;;;3.05;1.40;;;7.30;99.90;;;;;;6325091;22;20037;-69
2021/12/20 09:03:05;;;;;;;6.32;1.40;;;7.20;99.90;;;;;;6328452;22;19995;-68
2021/12/20 09:05:32;;;;;;;;;;;7.20;99.90;;;;;;6327850;22;19997;-71
2021/12/20 09:08:00;;;;;;;10.45;1.70;;;7.30;99.90;;;;;;6328791;22;19906;-69
2021/12/20 09:10:28;;;;;;;3.78;1.30;;;7.30;99.90;;;;;;6328916;22;20015;-69
2021/12/20 09:12:54;;;;;;;3.30;1.45;;;7.30;99.90;;;;;;6329539;22;19999;-69
2021/12/20 09:15:19;;;;;;;3.45;1.75;;;7.30;99.90;;;;;;6329156;22;20003;-69
2021/12/20 09:17:52;;;;;;;5.32;1.73;;;7.40;99.90;;;;;;6330624;22;19991;-68
2021/12/20 09:20:21;;;;;;;5.88;1.73;;;7.40;99.90;;;;;;6320213;22;20351;-69
2021/12/20 09:22:52;;;;;;;8.23;1.80;;;7.20;99.90;;;;;;6326739;22;20006;-69
2021/12/20 09:25:21;;;;;;;7.20;1.58;;;7.30;99.90;;;;;;6299115;22;20080;-70
2021/12/20 09:27:48;;;;;;;3.72;1.80;;;7.40;99.90;;;;;;6328977;22;20006;-71
2021/12/20 09:30:15;;;;;;;5.57;1.85;;;7.50;99.90;;;;;;6325332;22;20022;-69
2021/12/20 09:32:41;;;;;;;2.83;1.73;;;7.40;99.90;;;;;;6312433;22;20404;-70
2021/12/20 09:35:08;;;;;;;5.38;2.15;;;7.30;99.90;;;;;;6307837;22;20019;-69
2021/12/20 09:37:34;;;;;;;24.58;3.50;;;7.30;99.90;;;;;;6315035;22;20011;-69
2021/12/20 09:40:00;;;;;;;7.07;2.33;;;7.20;99.90;;;;;;6312557;22;20447;-70
2021/12/20 09:42:26;;;;;;;8.00;1.88;;;7.20;99.90;;;;;;6312568;22;20019;-69
2021/12/20 09:44:55;;;;;;;4.25;1.63;;;7.10;99.90;;;;;;6310169;22;20003;-69
2021/12/20 09:47:21;;;;;;;2.40;1.70;;;7.30;99.90;;;;;;6309382;22;20006;-69
2021/12/20 09:49:47;;;;;;;3.53;1.40;;;7.40;99.90;;;;;;6317261;22;20033;-69
2021/12/20 09:52:12;;;;;;;13.68;1.73;;;7.40;99.90;;;;;;6313225;22;19995;-69
2021/12/20 09:54:39;;;;;;;2.50;1.23;;;7.50;99.90;;;;;;6318726;22;20006;-70
2021/12/20 09:57:08;;;;;;;6.20;1.52;;;7.50;99.90;;;;;;6319230;22;19996;-70
2021/12/20 09:59:36;;;;;;;7.88;1.75;;;7.50;99.90;;;;;;6306142;22;20026;-69
2021/12/20 10:02:07;;;;;;;8.13;1.25;;;7.50;99.90;;;;;;6313858;22;19996;-71
2021/12/20 10:04:34;;;;;;;7.68;1.40;;;7.50;99.90;;;;;;6312939;22;20003;-69
2021/12/20 10:07:01;;;;;;;5.07;1.15;;;7.60;99.90;;;;;;6314311;22;20006;-71
2021/12/20 10:09:32;;;;;;;4.22;1.40;;;7.70;99.90;;;;;;6312927;22;20004;-69
2021/12/20 10:12:15;;;;;;;2.08;1.00;;;7.60;99.90;;;;;;6308084;22;20003;-71
2021/12/20 10:14:51;;;;;;;3.42;1.25;;;7.60;99.90;;;;;;6312231;22;20010;-69
2021/12/20 10:17:17;;;;;;;4.40;1.10;;;7.60;99.90;;;;;;6315476;22;20019;-70
2021/12/20 10:19:43;;;;;;;1.90;1.42;;;7.50;99.90;;;;;;6314020;22;20069;-69
2021/12/20 10:22:29;;;;;;;7.07;1.10;;;7.40;99.90;;;;;;6312458;22;20014;-71
2021/12/20 10:24:58;;;;;;;3.83;1.60;;;7.30;99.90;;;;;;6310123;22;20000;-70
2021/12/20 10:27:29;;;;;;;3.28;1.48;;;7.40;99.90;;;;;;6312833;22;20003;-70
2021/12/20 10:29:55;;;;;;;2.25;1.35;;;7.50;99.90;;;;;;6310304;22;20007;-69
2021/12/20 10:32:41;;;;;;;2.38;1.83;;;7.50;99.90;;;;;;6314045;22;20375;-68
2021/12/20 10:35:27;;;;;;;4.53;1.80;;;7.60;99.90;;;;;;6316011;22;19995;-69
2021/12/20 10:37:59;;;;;;;5.82;1.60;;;7.50;99.90;;;;;;6254508;22;20087;-71
2021/12/20 10:40:25;;;;;;;2.83;1.42;;;7.40;99.90;;;;;;6316094;22;20014;-72
2021/12/20 10:42:53;;;;;;;;;;;7.50;99.90;;;;;;6320372;22;19996;-71
2021/12/20 10:45:20;;;;;;;5.53;1.80;;;7.60;99.90;;;;;;6312002;22;19902;-70
2021/12/20 10:47:48;;;;;;;4.88;1.80;;;7.70;99.90;;;;;;6313900;22;20000;-71
2021/12/20 10:50:31;;;;;;;2.70;1.80;;;7.60;99.90;;;;;;6313482;22;20022;-70
2021/12/20 10:53:24;;;;;;;3.42;1.67;;;7.70;99.90;;;;;;6313165;22;20021;-70
2021/12/20 10:55:52;;;;;;;4.93;2.20;;;7.80;99.90;;;;;;6305539;22;20011;-71
2021/12/20 10:58:30;;;;;;;4.32;2.30;;;7.80;99.90;;;;;;6333991;22;20010;-72
2021/12/20 11:01:22;;;;;;;6.18;2.35;;;7.80;99.90;;;;;;6349774;22;20109;-71
2021/12/20 11:04:04;;;;;;;2.90;2.00;;;7.70;99.90;;;;;;6348088;22;20327;-71
2021/12/20 11:06:57;;;;;;;4.80;2.30;;;7.60;99.90;;;;;;6346967;22;20001;-71
2021/12/20 11:09:24;;;;;;;2.53;1.90;;;7.60;99.90;;;;;;6348671;22;20003;-69
2021/12/20 11:12:03;;;;;;;8.40;2.00;;;7.60;99.90;;;;;;6324064;22;20002;-70
2021/12/20 11:14:35;;;;;;;7.30;2.20;;;7.70;99.90;;;;;;6345507;22;20481;-70
2021/12/20 11:17:03;;;;;;;9.30;2.15;;;7.80;99.90;;;;;;6352256;22;20055;-70
2021/12/20 11:19:37;;;;;;;7.00;2.58;;;7.80;99.90;;;;;;6348867;22;20052;-71
2021/12/20 11:22:11;;;;;;;3.80;2.40;;;7.80;99.90;;;;;;6353595;22;20002;-70
2021/12/20 11:24:52;;;;;;;5.35;2.25;;;7.80;99.90;;;;;;6351396;22;19998;-69
2021/12/20 11:27:32;;;;;;;6.68;2.60;;;7.70;99.90;;;;;;6348970;22;20048;-71
2021/12/20 11:29:59;;;;;;;12.75;3.03;;;7.60;99.90;;;;;;6350815;22;20003;-71
2021/12/20 11:32:26;;;;;;;5.53;3.10;;;7.60;99.90;;;;;;6350950;22;20024;-70
2021/12/20 11:34:52;;;;;;;6.80;3.58;;;7.50;99.90;;;;;;6353493;22;20019;-70
2021/12/20 11:37:21;;;;;;;4.25;3.08;;;7.50;99.90;;;;;;6348108;22;19991;-70
2021/12/20 11:39:48;;;;;;;6.35;3.70;;;7.50;99.90;;;;;;6347646;22;20089;-71
2021/12/20 11:42:14;;;;;;;10.63;3.95;;;7.60;99.90;;;;;;6354484;22;19989;-70
2021/12/20 11:44:42;;;;;;;5.22;3.90;;;7.50;99.90;;;;;;6350946;22;19991;-72
2021/12/20 11:47:36;;;;;;;6.80;4.05;;;7.40;99.90;;;;;;6310414;22;19999;-71
2021/12/20 11:50:10;;;;;;;6.78;4.07;;;7.50;99.90;;;;;;6349096;22;20419;-71
2021/12/20 11:52:38;;;;;;;5.90;4.05;;;7.40;99.90;;;;;;6341289;22;20003;-72
2021/12/20 11:55:38;;;;;;;5.97;4.00;;;7.40;99.90;;;;;;6344665;22;19995;-71
2021/12/20 11:58:17;;;;;;;6.30;4.50;;;7.40;99.90;;;;;;6261666;22;20010;-71
2021/12/20 12:00:49;;;;;;;7.07;4.63;;;7.40;99.90;;;;;;6341486;22;20007;-70
2021/12/20 12:03:24;;;;;;;8.40;4.97;;;7.40;99.90;;;;;;6354043;22;19999;-71
2021/12/20 12:05:59;;;;;;;6.72;4.53;;;7.50;99.90;;;;;;6360986;22;20023;-70
2021/12/20 12:08:31;;;;;;;10.07;5.00;;;7.50;99.90;;;;;;6361957;22;20002;-71
2021/12/20 12:11:19;;;;;;;7.63;4.80;;;7.50;99.90;;;;;;6361741;22;20014;-73
2021/12/20 12:14:21;;;;;;;10.30;5.05;;;7.50;99.90;;;;;;6354255;22;20009;-71
2021/12/20 12:17:02;;;;;;;11.30;5.35;;;7.50;99.90;;;;;;6351651;22;20003;-70
2021/12/20 12:19:42;;;;;;;7.28;5.18;;;7.50;99.90;;;;;;6343792;22;20009;-70
2021/12/20 12:22:27;;;;;;;7.93;4.90;;;7.50;99.90;;;;;;6342567;22;19991;-69
2021/12/20 12:24:55;;;;;;;8.73;4.90;;;7.60;99.90;;;;;;6341141;22;19995;-68
2021/12/20 12:27:32;;;;;;;11.73;5.35;;;7.50;99.90;;;;;;6341510;22;20070;-69
2021/12/20 12:30:15;;;;;;;10.82;4.80;;;7.50;99.90;;;;;;6345374;22;20007;-70
2021/12/20 12:32:44;;;;;;;7.93;4.68;;;7.40;99.90;;;;;;6344219;22;19991;-68
2021/12/20 12:35:49;;;;;;;11.55;5.45;;;7.40;99.90;;;;;;6348809;22;20045;-69
2021/12/20 12:38:26;;;;;;;14.18;6.68;;;7.50;99.90;;;;;;6348048;22;20010;-70
2021/12/20 12:41:19;;;;;;;17.33;8.07;;;7.60;99.90;;;;;;6346752;22;20009;-68
2021/12/20 12:43:57;;;;;;;7.38;4.75;;;7.60;99.90;;;;;;6321912;22;19999;-71
2021/12/20 12:46:43;;;;;;;5.35;4.18;;;7.40;99.90;;;;;;6355066;22;20026;-70
2021/12/20 12:49:22;;;;;;;11.60;4.90;;;7.40;99.90;;;;;;6320727;22;20025;-70
2021/12/20 12:51:49;;;;;;;7.07;3.80;;;7.40;99.90;;;;;;6354974;22;19994;-71
2021/12/20 12:54:33;;;;;;;7.32;4.28;;;7.40;99.90;;;;;;6360487;22;19990;-72
2021/12/20 12:57:11;;;;;;;28.23;4.47;;;7.40;99.90;;;;;;6360433;22;19999;-70
2021/12/20 12:59:43;;;;;;;9.27;4.00;;;7.50;99.90;;;;;;6357191;22;20007;-70
2021/12/20 13:02:12;;;;;;;4.97;3.30;;;7.60;99.90;;;;;;6358226;22;19999;-69
2021/12/20 13:04:53;;;;;;;7.03;3.60;;;7.70;99.90;;;;;;6356495;22;20060;-72
2021/12/20 13:07:24;;;;;;;6.82;3.78;;;7.70;99.90;;;;;;6354635;22;19994;-70
2021/12/20 13:09:52;;;;;;;5.50;3.30;;;7.70;99.90;;;;;;6357347;22;20052;-71
2021/12/20 13:12:29;;;;;;;6.68;3.83;;;7.70;99.90;;;;;;6349207;22;20070;-70
2021/12/20 13:18:06;;;;;;;5.50;4.07;;;7.70;99.90;;;;;;6354586;22;20009;-69
2021/12/20 13:20:35;;;;;;;7.60;4.28;;;7.70;99.90;;;;;;6327250;22;20074;-69
2021/12/20 13:23:07;;;;;;;6.32;4.20;;;7.60;99.90;;;;;;6321235;22;19999;-68